Kalam Weather



Kalam's Current Weather

Temprature 5.69o overcast clouds

overcast clouds

Rain: 0 %

Min Temprature5.69o
Max Temprature5.69o
Humidity28
Wind Speed1.57 m/h
Sun Rise05:44:49
Sun Set18:37:11
Current Time: 09-Apr-2020 02:09:13
Lat/Lon: 35.48, 72.58




Kalam's Geo Location



Kalam's Weather Forecast

Time Overall Temp Min Temp Max Temp Humidity Wind Speed Rain
09-Apr-2020 (Thu)
05:00:00 overcast clouds 5.590 5.590 5.590 28 1.67 m/h 0 %
08:00:00 overcast clouds 7.060 7.060 7.060 29 1.32 m/h 0 %
11:00:00 overcast clouds 9.650 9.650 9.650 26 3.27 m/h 0 %
14:00:00 overcast clouds 8.410 8.410 8.410 33 4 m/h 0 %
17:00:00 moderate rain 7.860 7.860 7.860 34 2.12 m/h 727 %
20:00:00 light rain 5.730 5.730 5.730 34 0.96 m/h 34 %
23:00:00 light rain 5.370 5.370 5.370 34 1.35 m/h 170 %
10-Apr-2020 (Fri)
02:00:00 overcast clouds 6.090 6.090 6.090 33 0.53 m/h 0 %
05:00:00 overcast clouds 3.900 3.900 3.900 30 2.6 m/h 0 %
08:00:00 few clouds 7.280 7.280 7.280 26 1.76 m/h 0 %
11:00:00 few clouds 10.390 10.390 10.390 29 1.34 m/h 0 %
14:00:00 few clouds 11.760 11.760 11.760 26 0.09 m/h 0 %
17:00:00 scattered clouds 11.380 11.380 11.380 27 0.75 m/h 0 %
20:00:00 few clouds 6.030 6.030 6.030 26 3.07 m/h 0 %
23:00:00 clear sky 4.710 4.710 4.710 26 3.33 m/h 0 %
11-Apr-2020 (Sat)
02:00:00 broken clouds 5.060 5.060 5.060 25 3.45 m/h 0 %
05:00:00 overcast clouds 4.870 4.870 4.870 25 3.37 m/h 0 %
08:00:00 overcast clouds 9.480 9.480 9.480 21 2.29 m/h 0 %
11:00:00 broken clouds 13.740 13.740 13.740 18 1.07 m/h 0 %
14:00:00 scattered clouds 15.210 15.210 15.210 19 0.93 m/h 0 %
17:00:00 scattered clouds 14.010 14.010 14.010 22 1.13 m/h 0 %
20:00:00 broken clouds 8.730 8.730 8.730 23 2.67 m/h 0 %
23:00:00 scattered clouds 7.810 7.810 7.810 24 3.37 m/h 0 %
12-Apr-2020 (Sun)
02:00:00 broken clouds 7.600 7.600 7.600 24 3.29 m/h 0 %
05:00:00 broken clouds 7.330 7.330 7.330 23 3.21 m/h 0 %
08:00:00 few clouds 12.480 12.480 12.480 18 2.33 m/h 0 %
11:00:00 scattered clouds 17.320 17.320 17.320 16 0.74 m/h 0 %
14:00:00 overcast clouds 18.250 18.250 18.250 16 1.06 m/h 0 %
17:00:00 broken clouds 16.850 16.850 16.850 20 1.58 m/h 0 %
20:00:00 overcast clouds 10.620 10.620 10.620 23 2.38 m/h 0 %
23:00:00 overcast clouds 10.130 10.130 10.130 22 2.66 m/h 0 %
13-Apr-2020 (Mon)
02:00:00 overcast clouds 9.830 9.830 9.830 23 2.4 m/h 0 %
05:00:00 overcast clouds 9.540 9.540 9.540 24 2.34 m/h 0 %
08:00:00 overcast clouds 14.310 14.310 14.310 20 1.73 m/h 0 %
11:00:00 overcast clouds 18.180 18.180 18.180 15 1.8 m/h 0 %
14:00:00 light rain 18.760 18.760 18.760 17 2.97 m/h 106 %
17:00:00 overcast clouds 16.440 16.440 16.440 21 2.99 m/h 0 %
20:00:00 overcast clouds 12.450 12.450 12.450 28 0.52 m/h 0 %
23:00:00 light rain 11.830 11.830 11.830 28 1.36 m/h 36 %
14-Apr-2020 (Tue)
02:00:00 overcast clouds 9.610 9.610 9.610 34 0.72 m/h 0 %

Famous Cities (61)